首页
METAR-TAF:

METAR-TAF

机场 :

Agri-Science Center

Chillicothe, 密蘇里州, 美国

纬度: 39-49N, 经度: 093-35W, 海拔: 234米

当前天气观测

该预报发布于1小时和10分钟前的08:52 UTC
风速6节,风向多变
温度 19°C
湿度 94%
气压 1009 hPa

METAR: KCDJ 260852Z AUTO VRB06KT 19/18 A2981 RMK AO1 SLP084 P0013 60016 T01940183 58021

时间: 05:02 (10:02 UTC)


TAF: 丢失

超过4000个机场的气象观测和天气预报(METAR&TAF报告)。

可查询的气象台以黄色和红色小点在地图上表示。

将鼠标移到小点上方,可查看气象台名称。

然后点击查看天气观测和预报。

如需切换地图:点击带黑十字的绿色按钮放大地图;点击带横线的绿色按钮缩小地图;或者点击绿色箭头查看邻近地区的地图。


METAR-TAF: